Time;durP1;ratioP1;P1;durP2;ratioP2;P2;SDS_P1;SDS_P2;PMS_P1;PMS_P2;Temp;Humidity;BMP_temperature;BMP_pressure;BME280_temperature;BME280_humidity;BME280_pressure;Samples;Min_cycle;Max_cycle;Signal;HPM_P1;HPM_P2
2021/10/03 00:01:12;;;;;;;8.30;4.15;;;14.20;99.90;;;;;;5140092;27;20042;-61
2021/10/03 00:03:42;;;;;;;7.05;3.05;;;14.30;99.90;;;;;;5141812;27;20023;-61
2021/10/03 00:06:10;;;;;;;5.03;3.45;;;14.30;99.90;;;;;;5143443;27;20035;-61
2021/10/03 00:08:37;;;;;;;5.22;3.53;;;14.30;99.90;;;;;;5141536;27;20023;-61
2021/10/03 00:11:03;;;;;;;4.88;3.20;;;14.40;99.90;;;;;;5141755;27;20058;-63
2021/10/03 00:13:30;;;;;;;4.40;3.33;;;14.40;99.90;;;;;;5142117;27;20054;-62
2021/10/03 00:15:56;;;;;;;7.38;3.85;;;14.50;99.90;;;;;;5144079;27;20908;-62
2021/10/03 00:18:23;;;;;;;6.57;3.83;;;14.50;99.90;;;;;;5123384;27;20083;-62
2021/10/03 00:20:49;;;;;;;5.38;3.10;;;14.40;99.90;;;;;;5141418;27;20035;-63
2021/10/03 00:23:15;;;;;;;5.38;3.30;;;14.40;99.90;;;;;;5142296;27;20027;-62
2021/10/03 00:25:41;;;;;;;10.38;4.13;;;14.40;99.90;;;;;;5140791;27;20340;-63
2021/10/03 00:28:08;;;;;;;5.78;3.72;;;14.40;99.90;;;;;;5140771;27;20045;-63
2021/10/03 00:30:36;;;;;;;7.93;3.42;;;14.30;99.90;;;;;;5139354;27;20025;-62
2021/10/03 00:33:02;;;;;;;6.53;4.40;;;14.30;99.90;;;;;;5143497;27;20019;-62
2021/10/03 00:35:28;;;;;;;7.05;4.07;;;14.30;99.90;;;;;;5141335;27;20043;-62
2021/10/03 00:37:54;;;;;;;8.20;3.58;;;14.30;99.90;;;;;;5143367;27;20063;-62
2021/10/03 00:40:21;;;;;;;6.03;3.13;;;14.30;99.90;;;;;;5140516;27;20027;-62
2021/10/03 00:42:47;;;;;;;6.75;3.25;;;14.30;99.90;;;;;;5141680;27;20131;-63
2021/10/03 00:45:15;;;;;;;4.38;3.45;;;14.20;99.90;;;;;;5141575;27;20133;-63
2021/10/03 00:47:41;;;;;;;5.90;3.38;;;14.20;99.90;;;;;;5140182;27;20321;-62
2021/10/03 00:50:09;;;;;;;6.93;3.33;;;14.20;99.90;;;;;;5140678;27;20049;-62
2021/10/03 00:52:35;;;;;;;6.68;3.28;;;14.20;99.90;;;;;;5141123;27;20019;-62
2021/10/03 00:55:03;;;;;;;8.18;3.90;;;14.20;99.90;;;;;;5138782;27;20452;-62
2021/10/03 00:57:29;;;;;;;4.18;2.75;;;14.30;99.90;;;;;;5139637;27;20386;-62
2021/10/03 00:59:55;;;;;;;6.72;3.17;;;14.30;99.90;;;;;;5140387;27;20042;-62
2021/10/03 01:02:21;;;;;;;5.28;2.50;;;14.30;99.90;;;;;;5139468;27;20035;-62
2021/10/03 01:04:47;;;;;;;5.30;2.88;;;14.30;99.90;;;;;;5141529;27;20084;-62
2021/10/03 01:07:13;;;;;;;6.30;3.42;;;14.40;99.90;;;;;;5139192;27;20034;-62
2021/10/03 01:09:39;;;;;;;5.85;3.13;;;14.40;99.90;;;;;;5139255;27;20213;-63
2021/10/03 01:12:05;;;;;;;4.15;2.60;;;14.40;99.90;;;;;;5140938;27;20127;-62
2021/10/03 01:14:31;;;;;;;8.13;2.97;;;14.30;99.90;;;;;;5140000;27;20034;-62
2021/10/03 01:16:57;;;;;;;5.45;3.42;;;14.20;99.90;;;;;;5140861;27;20099;-62
2021/10/03 01:19:23;;;;;;;5.63;3.17;;;14.20;99.90;;;;;;5120321;27;20039;-62
2021/10/03 01:21:49;;;;;;;5.93;2.60;;;14.20;99.90;;;;;;5142341;27;20030;-62
2021/10/03 01:24:15;;;;;;;4.72;2.97;;;14.20;99.90;;;;;;5138460;27;20057;-61
2021/10/03 01:26:42;;;;;;;4.70;2.70;;;14.20;99.90;;;;;;5141388;27;20038;-62
2021/10/03 01:29:08;;;;;;;5.38;3.28;;;14.20;99.90;;;;;;5137748;27;20122;-61
2021/10/03 01:31:34;;;;;;;5.97;3.50;;;14.20;99.90;;;;;;5138636;27;20298;-62
2021/10/03 01:34:00;;;;;;;4.45;2.78;;;14.20;99.90;;;;;;5139705;27;20034;-61
2021/10/03 01:36:27;;;;;;;6.45;3.00;;;14.20;99.90;;;;;;5139749;27;20146;-61
2021/10/03 01:38:53;;;;;;;7.70;3.38;;;14.20;99.90;;;;;;5139933;27;20261;-61
2021/10/03 01:41:19;;;;;;;5.57;3.17;;;14.10;99.90;;;;;;5139474;27;20023;-61
2021/10/03 01:43:46;;;;;;;5.35;3.20;;;14.10;99.90;;;;;;5140175;27;20054;-61
2021/10/03 01:46:12;;;;;;;7.32;3.45;;;14.10;99.90;;;;;;5139870;27;20249;-61
2021/10/03 01:48:38;;;;;;;5.45;3.08;;;14.00;99.90;;;;;;5138347;27;20371;-60
2021/10/03 01:51:06;;;;;;;6.75;3.00;;;14.00;99.90;;;;;;5140164;27;20317;-61
2021/10/03 01:53:47;;;;;;;6.95;3.55;;;14.00;99.90;;;;;;5138787;27;20034;-61
2021/10/03 01:56:13;;;;;;;6.10;3.65;;;13.90;99.90;;;;;;5137955;27;20030;-61
2021/10/03 01:58:48;;;;;;;6.40;3.70;;;13.90;99.90;;;;;;5140195;27;20317;-61
2021/10/03 02:01:24;;;;;;;5.57;3.33;;;13.90;99.90;;;;;;5142447;27;20043;-61
2021/10/03 02:03:50;;;;;;;6.28;4.13;;;13.90;99.90;;;;;;5140952;27;20018;-61
2021/10/03 02:06:17;;;;;;;4.72;3.28;;;13.90;99.90;;;;;;5142781;27;20030;-61
2021/10/03 02:08:43;;;;;;;6.00;3.38;;;13.80;99.90;;;;;;5140342;27;20275;-60
2021/10/03 02:11:09;;;;;;;5.07;3.40;;;13.80;99.90;;;;;;5139294;27;20250;-61
2021/10/03 02:13:35;;;;;;;5.47;3.25;;;13.80;99.90;;;;;;5143767;27;20029;-61
2021/10/03 02:16:02;;;;;;;4.10;3.22;;;13.80;99.90;;;;;;5140571;27;20279;-61
2021/10/03 02:18:36;;;;;;;4.68;3.25;;;13.90;99.90;;;;;;5142754;27;20023;-61
2021/10/03 02:21:04;;;;;;;5.22;3.25;;;13.80;99.90;;;;;;5141095;27;20422;-61
2021/10/03 02:23:30;;;;;;;5.82;3.20;;;13.90;99.90;;;;;;5140286;27;20218;-61
2021/10/03 02:25:57;;;;;;;5.18;3.50;;;13.90;99.90;;;;;;5140652;27;20063;-61
2021/10/03 02:28:25;;;;;;;7.50;3.40;;;13.90;99.90;;;;;;5142583;27;20214;-61
2021/10/03 02:30:55;;;;;;;6.55;3.97;;;14.00;99.90;;;;;;5140301;27;20266;-61
2021/10/03 02:33:21;;;;;;;4.85;3.10;;;14.00;99.90;;;;;;5122641;27;20027;-61
2021/10/03 02:35:48;;;;;;;5.95;3.78;;;14.00;99.90;;;;;;5141777;27;20046;-61
2021/10/03 02:38:16;;;;;;;5.40;3.78;;;14.00;99.90;;;;;;5142419;27;20062;-61
2021/10/03 02:40:45;;;;;;;6.30;3.75;;;14.10;99.90;;;;;;5140257;27;20050;-61
2021/10/03 02:43:11;;;;;;;5.45;3.92;;;14.10;99.90;;;;;;5143617;27;20128;-61
2021/10/03 02:45:45;;;;;;;6.68;4.60;;;14.20;99.90;;;;;;5140693;27;20380;-61
2021/10/03 02:48:12;;;;;;;12.02;4.82;;;14.20;99.90;;;;;;5143514;27;20254;-61
2021/10/03 02:50:38;;;;;;;8.40;5.03;;;14.20;99.90;;;;;;5142930;27;20026;-61
2021/10/03 02:53:08;;;;;;;6.20;4.82;;;14.30;99.90;;;;;;5146817;27;20272;-61
2021/10/03 02:55:36;;;;;;;7.82;5.03;;;14.40;99.90;;;;;;5143995;27;20322;-61
2021/10/03 02:58:04;;;;;;;8.13;5.70;;;14.40;99.90;;;;;;5145746;27;20038;-61
2021/10/03 03:00:32;;;;;;;6.50;4.90;;;14.40;99.90;;;;;;5146355;27;20065;-61
2021/10/03 03:02:57;;;;;;;8.40;5.10;;;14.50;99.90;;;;;;5145899;27;20019;-61
2021/10/03 03:05:23;;;;;;;9.82;5.60;;;14.60;99.90;;;;;;5146337;27;20061;-61
2021/10/03 03:07:49;;;;;;;10.77;5.80;;;14.60;99.90;;;;;;5144322;27;20023;-61
2021/10/03 03:10:15;;;;;;;8.82;4.78;;;14.60;99.90;;;;;;5144912;27;20328;-61
2021/10/03 03:12:41;;;;;;;9.40;5.63;;;14.70;99.90;;;;;;5144344;27;20337;-61
2021/10/03 03:15:08;;;;;;;8.55;5.13;;;14.80;99.90;;;;;;5145004;27;20026;-61
2021/10/03 03:17:35;;;;;;;9.05;5.13;;;14.80;99.90;;;;;;5145426;27;20027;-62
2021/10/03 03:20:04;;;;;;;8.80;5.40;;;14.80;99.90;;;;;;5143115;27;20070;-62
2021/10/03 03:22:29;;;;;;;8.70;4.90;;;14.80;99.90;;;;;;5145203;27;20233;-62
2021/10/03 03:24:55;;;;;;;9.05;5.22;;;14.90;99.90;;;;;;5144213;27;20022;-62
2021/10/03 03:27:21;;;;;;;8.30;5.30;;;14.90;99.90;;;;;;5118152;27;20377;-62
2021/10/03 03:29:47;;;;;;;10.15;4.78;;;14.90;99.90;;;;;;5143334;27;20022;-62
2021/10/03 03:32:13;;;;;;;7.70;5.32;;;14.90;99.90;;;;;;5144567;27;20106;-62
2021/10/03 03:34:39;;;;;;;11.05;6.07;;;14.90;99.90;;;;;;5144665;27;20122;-62
2021/10/03 03:37:05;;;;;;;9.80;4.70;;;14.90;99.90;;;;;;5144838;27;20035;-62
2021/10/03 03:39:31;;;;;;;9.98;5.35;;;15.00;99.90;;;;;;5145168;27;20368;-63
2021/10/03 03:41:57;;;;;;;7.72;5.15;;;15.00;99.90;;;;;;5143285;27;20026;-62
2021/10/03 03:44:23;;;;;;;8.48;5.40;;;15.10;99.90;;;;;;5145441;27;20034;-62
2021/10/03 03:46:49;;;;;;;9.80;5.15;;;15.10;99.90;;;;;;5144310;27;20022;-63
2021/10/03 03:49:15;;;;;;;8.80;4.85;;;15.20;99.90;;;;;;5144858;27;20426;-62
2021/10/03 03:51:41;;;;;;;9.88;5.38;;;15.20;99.90;;;;;;5142147;27;20090;-62
2021/10/03 03:54:07;;;;;;;9.75;5.20;;;15.20;99.90;;;;;;5143269;27;20391;-62
2021/10/03 03:56:33;;;;;;;9.10;5.07;;;15.20;99.90;;;;;;5144020;27;20033;-62
2021/10/03 03:58:58;;;;;;;10.77;5.15;;;15.20;99.90;;;;;;5144052;27;20035;-62
2021/10/03 04:01:24;;;;;;;10.30;6.07;;;15.30;99.90;;;;;;5142107;27;20031;-62
2021/10/03 04:03:50;;;;;;;9.88;5.00;;;15.40;99.90;;;;;;5145087;27;20022;-62
2021/10/03 04:06:16;;;;;;;7.18;4.32;;;15.40;99.90;;;;;;5143194;27;20356;-62
2021/10/03 04:08:42;;;;;;;13.48;5.55;;;15.40;99.90;;;;;;5145222;27;20022;-62
2021/10/03 04:11:08;;;;;;;13.95;5.75;;;15.30;99.90;;;;;;5139895;27;20209;-62
2021/10/03 04:13:34;;;;;;;9.85;6.30;;;15.30;99.90;;;;;;5145713;27;20018;-62
2021/10/03 04:16:00;;;;;;;10.65;5.53;;;15.30;99.90;;;;;;5144407;27;20361;-62
2021/10/03 04:18:26;;;;;;;9.27;5.82;;;15.20;99.90;;;;;;5143764;27;20035;-62
2021/10/03 04:20:52;;;;;;;12.52;7.50;;;15.20;99.90;;;;;;5144099;27;20042;-62
2021/10/03 04:23:17;;;;;;;8.02;6.03;;;15.20;99.90;;;;;;5141861;27;20053;-62
2021/10/03 04:25:43;;;;;;;10.32;5.47;;;15.20;99.90;;;;;;5142967;27;20031;-62
2021/10/03 04:28:10;;;;;;;9.63;5.95;;;15.20;99.90;;;;;;5141107;27;20091;-62
2021/10/03 04:30:36;;;;;;;11.82;6.30;;;15.20;99.90;;;;;;5102710;27;20213;-62
2021/10/03 04:33:02;;;;;;;9.10;5.28;;;15.20;99.90;;;;;;5133273;27;20027;-62
2021/10/03 04:35:28;;;;;;;12.80;6.53;;;15.20;99.90;;;;;;5140008;27;20043;-62
2021/10/03 04:37:54;;;;;;;12.63;5.78;;;15.20;99.90;;;;;;5136390;27;20068;-62
2021/10/03 04:40:20;;;;;;;10.40;5.88;;;15.30;99.90;;;;;;5138849;27;20038;-62
2021/10/03 04:42:47;;;;;;;12.13;5.47;;;15.40;99.90;;;;;;5141495;27;20329;-62
2021/10/03 04:45:15;;;;;;;9.45;4.82;;;15.40;99.90;;;;;;5139841;27;20026;-62
2021/10/03 04:47:41;;;;;;;13.25;5.38;;;15.50;99.90;;;;;;5139050;27;20284;-62
2021/10/03 04:50:08;;;;;;;11.77;5.43;;;15.50;99.90;;;;;;5141261;27;20071;-62
2021/10/03 04:52:34;;;;;;;9.23;4.90;;;15.60;99.90;;;;;;5138980;27;20500;-62
2021/10/03 04:55:00;;;;;;;13.02;5.60;;;15.60;99.90;;;;;;5139948;27;20018;-62
2021/10/03 04:57:26;;;;;;;9.88;4.97;;;15.60;99.90;;;;;;5135658;27;20312;-62
2021/10/03 04:59:51;;;;;;;11.20;4.95;;;15.60;99.90;;;;;;5133527;27;20259;-62
2021/10/03 05:02:17;;;;;;;10.63;5.55;;;15.60;99.90;;;;;;5138467;27;20049;-62
2021/10/03 05:04:43;;;;;;;15.93;6.07;;;15.70;99.90;;;;;;5139594;27;20445;-62
2021/10/03 05:07:09;;;;;;;16.38;5.47;;;15.60;99.90;;;;;;5139046;27;20109;-62
2021/10/03 05:09:35;;;;;;;10.82;5.43;;;15.60;99.90;;;;;;5139022;27;20054;-62
2021/10/03 05:12:00;;;;;;;14.70;5.28;;;15.70;99.90;;;;;;5125723;27;20031;-62
2021/10/03 05:14:26;;;;;;;11.15;5.22;;;15.70;99.90;;;;;;5119796;27;20046;-62
2021/10/03 05:16:52;;;;;;;9.32;5.25;;;15.70;99.90;;;;;;5135869;27;20214;-62
2021/10/03 05:19:18;;;;;;;18.15;5.47;;;15.70;99.90;;;;;;5137865;27;20347;-62
2021/10/03 05:21:43;;;;;;;13.50;5.55;;;15.80;99.90;;;;;;5136637;27;20050;-62
2021/10/03 05:24:09;;;;;;;12.52;5.38;;;15.80;99.90;;;;;;5138085;27;20031;-62
2021/10/03 05:26:35;;;;;;;15.60;6.38;;;15.70;99.90;;;;;;5138578;27;20068;-61
2021/10/03 05:29:02;;;;;;;11.65;4.97;;;15.70;99.90;;;;;;5138682;27;20090;-62
2021/10/03 05:31:28;;;;;;;12.63;5.70;;;15.70;99.90;;;;;;5137989;27;20038;-62
2021/10/03 05:33:55;;;;;;;14.88;5.32;;;15.70;99.90;;;;;;5139004;27;20053;-62
2021/10/03 05:36:21;;;;;;;12.85;4.95;;;15.70;99.90;;;;;;5138107;27;20118;-62
2021/10/03 05:38:47;;;;;;;15.95;6.10;;;15.70;99.90;;;;;;5137891;27;20023;-62
2021/10/03 05:41:13;;;;;;;12.05;5.22;;;15.70;99.90;;;;;;5139427;27;20383;-62
2021/10/03 05:43:38;;;;;;;12.95;5.30;;;15.70;99.90;;;;;;5139292;27;20117;-62
2021/10/03 05:46:05;;;;;;;8.73;5.03;;;15.70;99.90;;;;;;5138271;27;20116;-62
2021/10/03 05:48:32;;;;;;;18.05;6.72;;;15.70;99.90;;;;;;5136645;27;20068;-62
2021/10/03 05:50:59;;;;;;;14.68;5.88;;;15.70;99.90;;;;;;5135105;27;20352;-62
2021/10/03 05:53:25;;;;;;;17.58;5.68;;;15.70;99.90;;;;;;5119119;27;20348;-62
2021/10/03 05:55:51;;;;;;;11.07;5.10;;;15.80;99.90;;;;;;5135923;27;20031;-62
2021/10/03 05:58:17;;;;;;;16.35;5.18;;;15.80;99.90;;;;;;5140075;27;20022;-62
2021/10/03 06:00:43;;;;;;;11.85;5.70;;;15.80;99.90;;;;;;5136045;27;20097;-62
2021/10/03 06:03:09;;;;;;;14.18;4.85;;;15.80;99.90;;;;;;5136040;27;20026;-62
2021/10/03 06:05:35;;;;;;;11.45;4.97;;;15.80;99.90;;;;;;5137744;27;20106;-63
2021/10/03 06:08:01;;;;;;;18.88;5.88;;;15.80;99.90;;;;;;5140366;27;20066;-63
2021/10/03 06:10:27;;;;;;;13.48;5.80;;;15.80;99.90;;;;;;5131741;27;20388;-62
2021/10/03 06:12:53;;;;;;;14.43;5.43;;;15.90;99.90;;;;;;5137641;27;20101;-62
2021/10/03 06:15:19;;;;;;;11.93;5.30;;;15.90;99.90;;;;;;5138005;27;20031;-63
2021/10/03 06:17:45;;;;;;;13.02;5.07;;;15.90;99.90;;;;;;5136005;27;20060;-62
2021/10/03 06:20:11;;;;;;;8.40;4.40;;;15.90;99.90;;;;;;5139101;27;20237;-62
2021/10/03 06:22:40;;;;;;;13.00;6.07;;;15.90;99.90;;;;;;5135484;27;20440;-62
2021/10/03 06:25:07;;;;;;;9.20;5.20;;;15.90;99.90;;;;;;5140411;27;20351;-62
2021/10/03 06:27:32;;;;;;;7.97;4.72;;;15.90;99.90;;;;;;5135908;27;20816;-62
2021/10/03 06:29:58;;;;;;;13.48;5.75;;;15.90;99.90;;;;;;5137479;27;20037;-62
2021/10/03 06:32:24;;;;;;;11.18;4.95;;;15.80;99.90;;;;;;5137396;27;20042;-62
2021/10/03 06:34:50;;;;;;;12.15;5.38;;;15.80;99.90;;;;;;5139737;27;20022;-62
2021/10/03 06:37:17;;;;;;;12.27;6.38;;;15.80;99.90;;;;;;5138592;27;20038;-62
2021/10/03 06:39:43;;;;;;;11.00;5.30;;;15.90;99.90;;;;;;5137601;27;20045;-62
2021/10/03 06:42:09;;;;;;;11.90;5.75;;;15.90;99.90;;;;;;5141167;27;20306;-62
2021/10/03 06:44:35;;;;;;;14.43;5.00;;;15.90;99.90;;;;;;5137078;27;20023;-62
2021/10/03 06:47:05;;;;;;;8.02;4.78;;;15.90;99.90;;;;;;5105948;27;20134;-63
2021/10/03 06:49:32;;;;;;;7.80;4.72;;;15.90;99.90;;;;;;5134225;27;20365;-63
2021/10/03 06:51:57;;;;;;;9.93;5.03;;;15.90;99.90;;;;;;5136513;27;20293;-62
2021/10/03 06:54:23;;;;;;;11.85;5.22;;;15.90;99.90;;;;;;5134747;27;20095;-62
2021/10/03 06:56:49;;;;;;;9.90;4.00;;;15.90;99.90;;;;;;5136983;27;20046;-62
2021/10/03 06:59:16;;;;;;;10.95;4.30;;;15.90;99.90;;;;;;5133026;27;20023;-64
2021/10/03 07:01:43;;;;;;;8.85;3.83;;;15.90;99.90;;;;;;5126576;27;20042;-65
2021/10/03 07:04:08;;;;;;;7.28;3.80;;;15.90;99.90;;;;;;5114343;27;20212;-63
2021/10/03 07:06:34;;;;;;;9.88;4.53;;;15.90;99.90;;;;;;5128336;27;20023;-63
2021/10/03 07:09:00;;;;;;;13.77;4.72;;;15.90;99.90;;;;;;5127756;27;20275;-62
2021/10/03 07:11:26;;;;;;;9.93;4.43;;;15.90;99.90;;;;;;5112309;27;20038;-62
2021/10/03 07:13:52;;;;;;;7.03;3.63;;;15.90;99.90;;;;;;5132011;27;20023;-63
2021/10/03 07:16:18;;;;;;;11.05;3.38;;;15.90;99.90;;;;;;5113557;27;20263;-63
2021/10/03 07:18:44;;;;;;;9.50;3.28;;;15.90;99.90;;;;;;5117399;27;20310;-62
2021/10/03 07:21:10;;;;;;;5.70;3.05;;;15.90;99.90;;;;;;5129434;27;20031;-63
2021/10/03 07:23:36;;;;;;;6.10;2.60;;;15.80;99.90;;;;;;5135030;27;20051;-63
2021/10/03 07:26:03;;;;;;;7.55;2.65;;;15.80;99.90;;;;;;5136997;27;20023;-62
2021/10/03 07:28:29;;;;;;;5.68;2.80;;;15.70;99.90;;;;;;5137238;27;20248;-63
2021/10/03 07:30:55;;;;;;;5.03;2.10;;;15.70;99.90;;;;;;5136329;27;20035;-62
2021/10/03 07:33:22;;;;;;;8.07;2.50;;;15.70;99.90;;;;;;5131739;27;20264;-62
2021/10/03 07:35:48;;;;;;;5.85;2.30;;;15.80;99.90;;;;;;5139139;27;20042;-62
2021/10/03 07:38:15;;;;;;;6.70;2.10;;;15.80;99.90;;;;;;5140519;27;20057;-62
2021/10/03 07:40:41;;;;;;;6.10;2.30;;;15.80;99.90;;;;;;5138303;27;20035;-63
2021/10/03 07:43:07;;;;;;;6.18;2.42;;;15.80;99.90;;;;;;5138125;27;20031;-62
2021/10/03 07:45:34;;;;;;;10.50;2.95;;;15.80;99.90;;;;;;5135820;27;20214;-63
2021/10/03 07:48:00;;;;;;;5.80;2.22;;;15.80;99.90;;;;;;5138176;27;20464;-62
2021/10/03 07:50:25;;;;;;;4.57;2.40;;;15.80;99.90;;;;;;5139484;27;20019;-62
2021/10/03 07:52:51;;;;;;;4.10;2.22;;;15.80;99.90;;;;;;5137233;27;20022;-62
2021/10/03 07:55:17;;;;;;;4.68;2.47;;;15.80;99.90;;;;;;5137150;27;20022;-62
2021/10/03 07:57:43;;;;;;;4.10;1.95;;;15.70;99.90;;;;;;5133256;27;20027;-62
2021/10/03 08:00:09;;;;;;;4.55;1.98;;;15.80;99.90;;;;;;5132687;27;20368;-62
2021/10/03 08:02:36;;;;;;;4.68;1.58;;;15.70;99.90;;;;;;5132823;27;20352;-61
2021/10/03 08:05:03;;;;;;;2.67;1.40;;;15.70;99.90;;;;;;5139850;27;20053;-61
2021/10/03 08:07:29;;;;;;;5.20;2.00;;;15.60;99.90;;;;;;5138378;27;20019;-61
2021/10/03 08:09:55;;;;;;;3.13;1.45;;;15.60;99.90;;;;;;5141809;27;20030;-62
2021/10/03 08:12:21;;;;;;;2.42;1.55;;;15.60;99.90;;;;;;5141059;27;20038;-62
2021/10/03 08:14:47;;;;;;;2.08;1.00;;;15.50;99.90;;;;;;5137285;27;20341;-61
2021/10/03 08:17:13;;;;;;;2.38;1.15;;;15.50;99.90;;;;;;5142237;27;20022;-63
2021/10/03 08:19:39;;;;;;;2.63;0.80;;;15.40;99.90;;;;;;5142288;27;20043;-64
2021/10/03 08:22:05;;;;;;;4.05;0.75;;;15.40;99.90;;;;;;5138974;27;20019;-61
2021/10/03 08:24:31;;;;;;;1.75;0.60;;;15.30;99.90;;;;;;5143772;27;20042;-62
2021/10/03 08:26:58;;;;;;;4.55;0.98;;;15.20;99.90;;;;;;5141476;27;20358;-61
2021/10/03 08:29:24;;;;;;;9.45;0.82;;;15.20;99.90;;;;;;5139192;27;20398;-62
2021/10/03 08:31:50;;;;;;;2.22;0.80;;;15.00;99.90;;;;;;5139662;27;20023;-62
2021/10/03 08:34:16;;;;;;;6.78;0.70;;;15.00;99.90;;;;;;5140143;27;20037;-61
2021/10/03 08:36:43;;;;;;;4.03;1.02;;;14.90;99.90;;;;;;5139811;27;20074;-62
2021/10/03 08:39:09;;;;;;;2.42;0.75;;;14.70;99.90;;;;;;5141779;27;20042;-62
2021/10/03 08:41:37;;;;;;;2.33;1.08;;;14.70;99.90;;;;;;5140791;27;20066;-62
2021/10/03 08:44:03;;;;;;;3.05;0.77;;;14.70;99.90;;;;;;5142551;27;20309;-62
2021/10/03 08:46:29;;;;;;;3.25;0.82;;;14.70;99.90;;;;;;5137725;27;20236;-62
2021/10/03 08:48:56;;;;;;;4.55;1.15;;;14.70;99.90;;;;;;5137624;27;20026;-62
2021/10/03 08:51:23;;;;;;;4.88;1.48;;;14.70;99.90;;;;;;5135454;27;20109;-62
2021/10/03 08:53:49;;;;;;;4.93;0.90;;;14.70;99.90;;;;;;5138311;27;20064;-62
2021/10/03 08:56:16;;;;;;;7.82;1.75;;;14.70;99.90;;;;;;5139537;27;20027;-62
2021/10/03 08:58:42;;;;;;;6.40;1.10;;;14.80;99.90;;;;;;5138712;27;20284;-62
2021/10/03 09:01:10;;;;;;;5.15;1.20;;;14.80;99.90;;;;;;5139698;27;20050;-62
2021/10/03 09:03:37;;;;;;;5.18;1.50;;;14.80;99.90;;;;;;5139039;27;20031;-62
2021/10/03 09:06:03;;;;;;;5.22;1.17;;;14.80;99.90;;;;;;5136686;27;20023;-62
2021/10/03 09:08:35;;;;;;;7.88;1.30;;;14.90;99.90;;;;;;5138673;27;20670;-62
2021/10/03 09:11:05;;;;;;;10.15;1.60;;;14.90;99.90;;;;;;5136684;27;20030;-62
2021/10/03 09:13:31;;;;;;;7.93;1.40;;;15.00;99.90;;;;;;5136942;27;20023;-62
2021/10/03 09:16:22;;;;;;;7.00;1.13;;;14.90;99.90;;;;;;5138837;27;20416;-62
2021/10/03 09:18:56;;;;;;;11.23;1.55;;;14.90;99.90;;;;;;5137338;27;20353;-62
2021/10/03 09:21:28;;;;;;;6.13;1.10;;;14.90;99.90;;;;;;5138029;27;20051;-62
2021/10/03 09:24:01;;;;;;;6.40;1.33;;;14.90;99.90;;;;;;5138431;27;20402;-62
2021/10/03 09:26:28;;;;;;;11.95;1.58;;;14.90;99.90;;;;;;5139540;27;20047;-62
2021/10/03 09:28:54;;;;;;;6.10;1.20;;;14.80;99.90;;;;;;5135364;27;20064;-62
2021/10/03 09:31:21;;;;;;;7.45;1.48;;;14.60;99.90;;;;;;5139708;27;20031;-62
2021/10/03 09:33:48;;;;;;;8.45;1.75;;;14.50;99.90;;;;;;5139144;27;20471;-62
2021/10/03 09:36:33;;;;;;;6.78;1.15;;;14.50;99.90;;;;;;5138123;27;20245;-62
2021/10/03 09:39:08;;;;;;;6.95;1.80;;;14.40;99.90;;;;;;5139622;27;20102;-62
2021/10/03 09:41:39;;;;;;;5.60;1.27;;;14.40;99.90;;;;;;5140048;27;20387;-62
2021/10/03 09:44:12;;;;;;;5.35;1.00;;;14.40;99.90;;;;;;5138110;27;20295;-62
2021/10/03 09:46:49;;;;;;;6.10;1.42;;;14.30;99.90;;;;;;5138849;27;20031;-62
2021/10/03 09:49:28;;;;;;;6.40;1.45;;;14.20;99.90;;;;;;5139204;27;20253;-62
2021/10/03 09:51:55;;;;;;;9.75;1.90;;;14.20;99.90;;;;;;5137311;27;20206;-62
2021/10/03 09:54:22;;;;;;;3.95;1.30;;;14.20;99.90;;;;;;5139184;27;20022;-62
2021/10/03 09:56:50;;;;;;;6.18;1.48;;;14.20;99.90;;;;;;5137536;27;20034;-62
2021/10/03 09:59:17;;;;;;;5.43;1.35;;;14.20;99.90;;;;;;5139200;27;20480;-62
2021/10/03 10:01:45;;;;;;;4.70;1.15;;;14.10;99.90;;;;;;5137967;27;20150;-62
2021/10/03 10:04:19;;;;;;;7.22;1.48;;;14.10;99.90;;;;;;5135657;27;20060;-62
2021/10/03 10:06:46;;;;;;;6.45;1.52;;;14.10;99.90;;;;;;5138456;27;20251;-62
2021/10/03 10:09:23;;;;;;;4.63;1.20;;;14.00;99.90;;;;;;5137447;27;20022;-62
2021/10/03 10:11:51;;;;;;;5.65;1.30;;;14.10;99.90;;;;;;5136877;27;20301;-62
2021/10/03 10:14:25;;;;;;;9.68;1.40;;;14.10;99.90;;;;;;5130292;27;20260;-62
2021/10/03 10:16:53;;;;;;;7.53;1.50;;;14.20;99.90;;;;;;5134076;27;20026;-62
2021/10/03 10:19:38;;;;;;;6.47;1.17;;;14.20;99.90;;;;;;5131629;27;20023;-62
2021/10/03 10:22:14;;;;;;;4.07;1.27;;;14.20;99.90;;;;;;5132301;27;20014;-62
2021/10/03 10:24:43;;;;;;;6.15;1.17;;;14.30;99.90;;;;;;5123178;27;20030;-62
2021/10/03 10:27:21;;;;;;;3.53;1.20;;;14.40;99.90;;;;;;5108543;27;20072;-62
2021/10/03 10:29:52;;;;;;;7.63;1.92;;;14.40;99.90;;;;;;5132743;27;20027;-62
2021/10/03 10:32:22;;;;;;;8.80;1.00;;;14.40;99.90;;;;;;5137833;27;20321;-62
2021/10/03 10:35:09;;;;;;;4.85;1.17;;;14.40;99.90;;;;;;5134055;27;20086;-62
2021/10/03 10:37:51;;;;;;;2.70;0.88;;;14.40;99.90;;;;;;5117117;27;20267;-62
2021/10/03 10:40:23;;;;;;;8.27;1.67;;;14.50;99.90;;;;;;5134381;27;20068;-62
2021/10/03 10:42:52;;;;;;;5.05;1.30;;;14.50;99.90;;;;;;5119312;27;20084;-62
2021/10/03 10:45:27;;;;;;;7.20;1.63;;;14.50;99.90;;;;;;5133810;27;20050;-62
2021/10/03 10:48:17;;;;;;;8.38;1.38;;;14.50;99.90;;;;;;5137358;27;20027;-62
2021/10/03 10:50:49;;;;;;;;;;;14.50;99.90;;;;;;5128268;27;20043;-62
2021/10/03 10:53:24;;;;;;;3.47;1.00;;;14.50;99.90;;;;;;5137135;27;19911;-62
2021/10/03 10:56:01;;;;;;;4.85;1.55;;;14.50;99.90;;;;;;5135399;27;20100;-62
2021/10/03 10:58:27;;;;;;;5.55;1.20;;;14.50;99.90;;;;;;5138649;27;20127;-62
2021/10/03 11:01:06;;;;;;;4.43;1.10;;;14.50;99.90;;;;;;5137916;27;20030;-62
2021/10/03 11:03:43;;;;;;;5.32;0.88;;;14.50;99.90;;;;;;5135534;27;20029;-62
2021/10/03 11:06:21;;;;;;;3.97;1.00;;;14.60;99.90;;;;;;5135483;27;20047;-62
2021/10/03 11:09:07;;;;;;;3.35;1.10;;;14.60;99.90;;;;;;5137595;27;20376;-62
2021/10/03 11:11:34;;;;;;;4.28;1.15;;;14.60;99.90;;;;;;5140385;27;20031;-62
2021/10/03 11:14:01;;;;;;;4.43;1.17;;;14.60;99.90;;;;;;5141664;27;20023;-62
2021/10/03 11:16:44;;;;;;;4.65;1.10;;;14.70;99.90;;;;;;5143498;27;20050;-62
2021/10/03 11:19:32;;;;;;;14.25;1.77;;;14.70;99.90;;;;;;5135093;27;20025;-63
2021/10/03 11:22:01;;;;;;;9.50;1.40;;;14.70;99.90;;;;;;5140037;27;20031;-62
2021/10/03 11:24:33;;;;;;;4.95;1.13;;;14.70;99.90;;;;;;5139195;27;20282;-62
2021/10/03 11:27:14;;;;;;;2.30;0.90;;;14.70;99.90;;;;;;5140747;27;20035;-62
2021/10/03 11:29:43;;;;;;;4.75;0.82;;;14.60;99.90;;;;;;5142068;27;20023;-62
2021/10/03 11:32:12;;;;;;;4.60;0.88;;;14.60;99.90;;;;;;5143226;27;20027;-63
2021/10/03 11:35:02;;;;;;;3.92;0.98;;;14.60;99.90;;;;;;5120868;27;20152;-62
2021/10/03 11:37:45;;;;;;;4.75;1.38;;;14.60;99.90;;;;;;5141077;27;20361;-62
2021/10/03 11:40:19;;;;;;;7.82;1.70;;;14.70;99.90;;;;;;5139894;27;20100;-62
2021/10/03 11:42:54;;;;;;;8.88;1.33;;;14.70;99.90;;;;;;5140885;27;20253;-62
2021/10/03 11:45:26;;;;;;;7.53;1.45;;;14.70;99.90;;;;;;5140653;27;20029;-62
2021/10/03 11:48:00;;;;;;;5.28;1.33;;;14.70;99.90;;;;;;5141675;27;20084;-62
2021/10/03 11:50:35;;;;;;;4.88;1.00;;;14.70;99.90;;;;;;5135431;27;20027;-62
2021/10/03 11:53:21;;;;;;;5.10;1.30;;;14.70;99.90;;;;;;5122665;27;20341;-62
2021/10/03 11:55:52;;;;;;;3.72;1.10;;;14.60;99.90;;;;;;5139199;27;21965;-62
2021/10/03 11:58:27;;;;;;;10.88;1.88;;;14.50;99.90;;;;;;5139747;27;20027;-62
2021/10/03 12:01:02;;;;;;;4.97;1.30;;;14.60;99.90;;;;;;5138220;27;20043;-63
2021/10/03 12:03:33;;;;;;;5.00;1.70;;;14.50;99.90;;;;;;5137090;27;20283;-62
2021/10/03 12:06:15;;;;;;;5.40;2.30;;;14.60;99.90;;;;;;5138379;27;20027;-62
2021/10/03 12:08:41;;;;;;;8.70;2.53;;;14.60;99.90;;;;;;5138910;27;20053;-62
2021/10/03 12:11:07;;;;;;;9.57;2.38;;;14.50;99.90;;;;;;5138250;27;20264;-62
2021/10/03 12:13:34;;;;;;;9.45;2.80;;;14.50;99.90;;;;;;5136659;27;20498;-62
2021/10/03 12:16:01;;;;;;;5.55;1.20;;;14.50;99.90;;;;;;5136007;27;20147;-63
2021/10/03 12:18:30;;;;;;;7.22;1.48;;;14.60;99.90;;;;;;5140881;27;20022;-74
2021/10/03 12:21:01;;;;;;;8.15;1.85;;;14.60;99.90;;;;;;5141214;27;20039;-74
2021/10/03 12:23:41;;;;;;;8.00;1.60;;;14.60;99.90;;;;;;5142911;27;20046;-73
2021/10/03 12:26:25;;;;;;;4.72;1.10;;;14.60;99.90;;;;;;5139080;27;20063;-74
2021/10/03 12:29:04;;;;;;;7.78;1.45;;;14.60;99.90;;;;;;5117808;27;20035;-73
2021/10/03 12:31:53;;;;;;;9.15;1.30;;;14.70;99.90;;;;;;5135415;27;20423;-74
2021/10/03 12:34:31;;;;;;;12.38;1.73;;;14.60;99.90;;;;;;5142672;27;20118;-73
2021/10/03 12:36:59;;;;;;;6.68;1.60;;;14.50;99.90;;;;;;5142190;27;20330;-73
2021/10/03 12:39:28;;;;;;;9.40;1.75;;;14.50;99.90;;;;;;5141321;27;20131;-73
2021/10/03 12:41:56;;;;;;;5.40;1.33;;;14.40;99.90;;;;;;5138966;27;20329;-74
2021/10/03 12:44:27;;;;;;;5.72;1.20;;;14.50;99.90;;;;;;5136448;27;20079;-73
2021/10/03 12:46:55;;;;;;;10.15;1.73;;;14.60;99.90;;;;;;5137975;27;20034;-74
2021/10/03 12:49:21;;;;;;;9.85;1.58;;;14.50;99.90;;;;;;5141712;27;20099;-74
2021/10/03 12:51:47;;;;;;;5.43;1.30;;;14.60;99.90;;;;;;5119126;27;20030;-74